Time;durP1;ratioP1;P1;durP2;ratioP2;P2;SDS_P1;SDS_P2;PMS_P1;PMS_P2;Temp;Humidity;BMP_temperature;BMP_pressure;BME280_temperature;BME280_humidity;BME280_pressure;Samples;Min_cycle;Max_cycle;Signal;HPM_P1;HPM_P2
2021/12/15 00:00:56;;;;;;;93.00;35.67;;;10.00;99.90;;;;;;5083781;28;20069;-83
2021/12/15 00:03:22;;;;;;;87.50;36.10;;;10.00;99.90;;;;;;5085334;28;20043;-82
2021/12/15 00:05:49;;;;;;;84.70;35.13;;;10.10;99.90;;;;;;5083865;28;20066;-82
2021/12/15 00:08:15;;;;;;;81.83;32.60;;;10.00;99.90;;;;;;5086079;28;20043;-83
2021/12/15 00:10:44;;;;;;;77.77;33.17;;;10.10;99.90;;;;;;5118741;28;20038;-82
2021/12/15 00:13:12;;;;;;;81.40;32.90;;;10.10;99.90;;;;;;5102169;28;20039;-83
2021/12/15 00:15:38;;;;;;;77.40;33.57;;;10.00;99.90;;;;;;5085235;28;20110;-83
2021/12/15 00:18:04;;;;;;;77.73;33.67;;;10.10;99.90;;;;;;5085663;28;20122;-83
2021/12/15 00:20:31;;;;;;;82.77;35.63;;;10.10;99.90;;;;;;5101514;28;20077;-83
2021/12/15 00:22:57;;;;;;;72.60;32.40;;;10.10;99.90;;;;;;5082182;28;20053;-83
2021/12/15 00:25:26;;;;;;;79.00;33.90;;;10.10;99.90;;;;;;5119469;28;20046;-83
2021/12/15 00:27:52;;;;;;;82.30;34.33;;;10.10;99.90;;;;;;5101843;28;20054;-83
2021/12/15 00:30:18;;;;;;;75.57;33.13;;;10.10;99.90;;;;;;5082869;28;20558;-82
2021/12/15 00:32:44;;;;;;;76.53;33.03;;;10.10;99.90;;;;;;5102074;28;20106;-83
2021/12/15 00:35:11;;;;;;;77.37;35.17;;;10.10;99.90;;;;;;5064988;28;20074;-81
2021/12/15 00:37:37;;;;;;;79.20;33.97;;;10.10;99.90;;;;;;5096836;28;20383;-82
2021/12/15 00:40:06;;;;;;;68.40;32.83;;;10.10;99.90;;;;;;5083811;28;20043;-83
2021/12/15 00:42:32;;;;;;;74.07;33.33;;;10.10;99.90;;;;;;5101908;28;20051;-83
2021/12/15 00:44:58;;;;;;;73.17;31.47;;;10.10;99.90;;;;;;5101314;28;20039;-82
2021/12/15 00:47:24;;;;;;;70.07;32.00;;;10.20;99.90;;;;;;5118791;28;20401;-84
2021/12/15 00:49:51;;;;;;;71.87;34.13;;;10.10;99.90;;;;;;5100918;28;20120;-83
2021/12/15 00:52:17;;;;;;;68.63;32.70;;;10.20;99.90;;;;;;5100150;28;20575;-83
2021/12/15 00:54:43;;;;;;;72.60;33.00;;;10.10;99.90;;;;;;5066248;28;20095;-82
2021/12/15 00:57:09;;;;;;;71.40;31.80;;;10.10;99.90;;;;;;5084389;28;20075;-83
2021/12/15 00:59:35;;;;;;;67.87;30.10;;;10.10;99.90;;;;;;5102124;28;20337;-83
2021/12/15 01:02:01;;;;;;;71.53;32.63;;;10.10;99.90;;;;;;5117882;27;20104;-82
2021/12/15 01:04:30;;;;;;;64.70;30.13;;;10.20;99.90;;;;;;5104831;27;20064;-83
2021/12/15 01:06:59;;;;;;;63.57;29.80;;;10.10;99.90;;;;;;5087776;27;20046;-83
2021/12/15 01:09:40;;;;;;;67.43;30.27;;;10.20;99.90;;;;;;5105294;27;20071;-83
2021/12/15 01:12:15;;;;;;;73.03;32.20;;;10.20;99.90;;;;;;5120645;27;20047;-83
2021/12/15 01:20:30;;;;;;;69.63;31.33;;;10.20;99.90;;;;;;5119011;27;20070;-82
2021/12/15 01:23:01;;;;;;;60.73;30.20;;;10.20;99.90;;;;;;5121694;27;20061;-82
2021/12/15 01:25:37;;;;;;;67.27;31.40;;;10.20;99.90;;;;;;5121480;27;20093;-82
2021/12/15 01:28:03;;;;;;;61.63;30.30;;;10.20;99.90;;;;;;5100317;27;20299;-83
2021/12/15 01:30:32;;;;;;;69.07;29.73;;;10.10;99.90;;;;;;5104215;27;20051;-82
2021/12/15 01:32:59;;;;;;;66.03;30.43;;;10.20;99.90;;;;;;5118261;27;20039;-82
2021/12/15 01:35:25;;;;;;;69.03;29.70;;;10.20;99.90;;;;;;5087179;27;20052;-82
2021/12/15 01:37:52;;;;;;;66.53;29.10;;;10.20;99.90;;;;;;5104517;27;20039;-82
2021/12/15 01:40:41;;;;;;;74.00;32.10;;;10.20;99.90;;;;;;5082668;27;20195;-82
2021/12/15 01:43:21;;;;;;;64.03;29.20;;;10.20;99.90;;;;;;5120061;27;20050;-82
2021/12/15 01:48:41;;;;;;;73.90;30.73;;;10.20;99.90;;;;;;5118467;28;20044;-83
2021/12/15 01:51:10;;;;;;;63.07;27.57;;;10.20;99.90;;;;;;5104346;27;20043;-82
2021/12/15 01:53:36;;;;;;;67.07;31.23;;;10.20;99.90;;;;;;5103369;27;20050;-82
2021/12/15 01:56:05;;;;;;;62.03;28.87;;;10.20;99.90;;;;;;5103488;27;20046;-82
2021/12/15 01:58:32;;;;;;;64.10;29.20;;;10.20;99.90;;;;;;5103688;27;20076;-82
2021/12/15 02:01:03;;;;;;;65.63;29.30;;;10.20;99.90;;;;;;5103425;27;20733;-83
2021/12/15 02:03:29;;;;;;;65.35;29.00;;;10.20;99.90;;;;;;5103985;27;20076;-82
2021/12/15 02:05:55;;;;;;;61.03;29.00;;;10.20;99.90;;;;;;5086300;27;20043;-83
2021/12/15 02:08:21;;;;;;;66.80;30.13;;;10.20;99.90;;;;;;5104160;27;20103;-82
2021/12/15 02:10:49;;;;;;;67.00;29.73;;;10.20;99.90;;;;;;5085074;27;20036;-83
2021/12/15 02:13:17;;;;;;;66.13;28.83;;;10.20;99.90;;;;;;5086625;27;20038;-82
2021/12/15 02:15:50;;;;;;;67.07;30.93;;;10.20;99.90;;;;;;5119842;27;20089;-82
2021/12/15 02:18:18;;;;;;;66.13;30.30;;;10.20;99.90;;;;;;5103283;27;20038;-83
2021/12/15 02:20:49;;;;;;;69.27;30.13;;;10.20;99.90;;;;;;5103409;27;20083;-83
2021/12/15 02:23:20;;;;;;;67.15;31.13;;;10.20;99.90;;;;;;5103257;27;20426;-83
2021/12/15 02:25:47;;;;;;;63.20;28.97;;;10.20;99.90;;;;;;5126948;27;20054;-83
2021/12/15 02:28:13;;;;;;;71.40;31.17;;;10.20;99.90;;;;;;5118957;27;20181;-83
2021/12/15 02:30:53;;;;;;;65.50;30.13;;;10.20;99.90;;;;;;5088381;27;20035;-83
2021/12/15 02:38:39;;;;;;;70.70;30.27;;;10.30;99.90;;;;;;5106173;27;20035;-83
2021/12/15 02:41:13;;;;;;;73.87;29.87;;;10.20;99.90;;;;;;5118905;27;20047;-83
2021/12/15 02:43:39;;;;;;;69.23;29.77;;;10.20;99.90;;;;;;5102815;27;20031;-82
2021/12/15 02:46:06;;;;;;;71.73;29.53;;;10.20;99.90;;;;;;5102442;27;20047;-83
2021/12/15 02:48:33;;;;;;;64.33;29.67;;;10.30;99.90;;;;;;5102987;27;20060;-82
2021/12/15 02:50:59;;;;;;;67.17;29.80;;;10.30;99.90;;;;;;5097869;27;20099;-83
2021/12/15 02:53:25;;;;;;;60.70;27.40;;;10.30;99.90;;;;;;5102709;27;20043;-84
2021/12/15 02:55:51;;;;;;;68.27;29.50;;;10.30;99.90;;;;;;5113537;27;20042;-83
2021/12/15 02:58:19;;;;;;;65.13;28.20;;;10.30;99.90;;;;;;5085096;27;20490;-83
2021/12/15 03:00:58;;;;;;;62.40;28.40;;;10.30;99.90;;;;;;5085803;27;20039;-83
2021/12/15 03:06:08;;;;;;;60.83;28.50;;;10.30;99.90;;;;;;5102309;27;20047;-83
2021/12/15 03:08:54;;;;;;;62.80;28.60;;;10.30;99.90;;;;;;5102758;27;20039;-84
2021/12/15 03:16:49;;;;;;;70.97;30.23;;;10.30;99.90;;;;;;5104330;27;20075;-83
2021/12/15 03:19:16;;;;;;;63.67;28.77;;;10.30;99.90;;;;;;5101971;27;20058;-82
2021/12/15 03:21:42;;;;;;;68.83;29.33;;;10.30;99.90;;;;;;5083816;27;20076;-83
2021/12/15 03:24:14;;;;;;;67.10;30.43;;;10.30;99.90;;;;;;5101728;27;20095;-82
2021/12/15 03:26:51;;;;;;;60.33;26.92;;;10.30;99.90;;;;;;5099367;27;20099;-83
2021/12/15 03:37:42;;;;;;;74.47;31.13;;;10.30;99.90;;;;;;5119954;28;20119;-82
2021/12/15 03:40:23;;;;;;;74.30;31.80;;;10.30;99.90;;;;;;5102220;28;20062;-82
2021/12/15 03:42:59;;;;;;;71.07;29.77;;;10.30;99.90;;;;;;5106442;28;20536;-83
2021/12/15 03:45:32;;;;;;;80.27;31.47;;;10.30;99.90;;;;;;5100433;27;20031;-82
2021/12/15 03:48:01;;;;;;;74.23;30.30;;;10.30;99.90;;;;;;5099063;28;20922;-82
2021/12/15 03:50:28;;;;;;;68.20;29.93;;;10.30;99.90;;;;;;5120046;28;20043;-82
2021/12/15 03:52:54;;;;;;;72.53;31.53;;;10.30;99.90;;;;;;5084900;28;20039;-82
2021/12/15 03:55:24;;;;;;;74.43;31.43;;;10.30;99.90;;;;;;5067000;28;20124;-82
2021/12/15 03:57:50;;;;;;;74.70;30.90;;;10.30;99.90;;;;;;5118766;28;20565;-82
2021/12/15 04:00:18;;;;;;;74.40;32.23;;;10.30;99.90;;;;;;5083233;28;20130;-82
2021/12/15 04:02:44;;;;;;;76.60;31.00;;;10.30;99.90;;;;;;5102349;28;20047;-82
2021/12/15 04:05:13;;;;;;;73.07;31.07;;;10.20;99.90;;;;;;5100929;28;20039;-82
2021/12/15 04:07:39;;;;;;;74.40;31.67;;;10.30;99.90;;;;;;5102033;28;20035;-82
2021/12/15 04:10:09;;;;;;;70.67;30.57;;;10.30;99.90;;;;;;5084524;28;20043;-82
2021/12/15 04:12:35;;;;;;;76.67;33.40;;;10.30;99.90;;;;;;5119467;28;20115;-82
2021/12/15 04:15:43;;;;;;;78.27;34.20;;;10.30;99.90;;;;;;5101849;28;20120;-82
2021/12/15 04:18:01;;;;;;;76.73;32.43;;;10.30;99.90;;;;;;5111419;28;20050;-82
2021/12/15 04:20:30;;;;;;;72.60;31.08;;;10.20;99.90;;;;;;5100780;28;20047;-82
2021/12/15 04:22:56;;;;;;;75.93;33.80;;;10.30;99.90;;;;;;5101958;28;20043;-82
2021/12/15 04:25:27;;;;;;;78.57;33.13;;;10.30;99.90;;;;;;5081385;28;20035;-82
2021/12/15 04:28:12;;;;;;;81.67;34.77;;;10.20;99.90;;;;;;5118033;28;20035;-81
2021/12/15 04:30:45;;;;;;;76.00;33.33;;;10.20;99.90;;;;;;5099058;28;20501;-82
2021/12/15 04:33:27;;;;;;;79.40;33.67;;;10.20;99.90;;;;;;5117867;28;20474;-81
2021/12/15 04:35:54;;;;;;;81.57;33.70;;;10.20;99.90;;;;;;5117671;28;20043;-82
2021/12/15 04:38:23;;;;;;;80.63;34.23;;;10.20;99.90;;;;;;5088989;27;20095;-82
2021/12/15 04:40:50;;;;;;;79.80;35.03;;;10.20;99.90;;;;;;5105046;27;20082;-81
2021/12/15 04:43:16;;;;;;;83.03;34.33;;;10.20;99.90;;;;;;5105465;27;20238;-82
2021/12/15 04:45:42;;;;;;;83.30;35.20;;;10.20;99.90;;;;;;5121301;27;20031;-81
2021/12/15 04:48:09;;;;;;;86.20;34.53;;;10.20;99.90;;;;;;5071160;27;20043;-83
2021/12/15 04:50:35;;;;;;;81.50;35.40;;;10.20;99.90;;;;;;5105396;27;20051;-82
2021/12/15 04:53:03;;;;;;;81.80;35.27;;;10.20;99.90;;;;;;5105950;27;20104;-82
2021/12/15 04:55:31;;;;;;;86.20;36.30;;;10.20;99.90;;;;;;5122017;27;20043;-82
2021/12/15 04:58:01;;;;;;;88.47;37.50;;;10.20;99.90;;;;;;5105025;27;20741;-82
2021/12/15 05:00:32;;;;;;;85.57;35.60;;;10.20;99.90;;;;;;5122570;27;20428;-83
2021/12/15 05:02:58;;;;;;;73.90;35.13;;;10.20;99.90;;;;;;5103159;27;20043;-83
2021/12/15 05:05:26;;;;;;;86.10;38.10;;;10.20;99.90;;;;;;5086147;27;20111;-82
2021/12/15 05:07:53;;;;;;;83.03;36.27;;;10.20;99.90;;;;;;5104902;27;20043;-82
2021/12/15 05:10:20;;;;;;;83.73;36.13;;;10.20;99.90;;;;;;5085237;27;20385;-82
2021/12/15 05:12:46;;;;;;;78.57;34.70;;;10.20;99.90;;;;;;5122398;27;20039;-82
2021/12/15 05:15:12;;;;;;;79.63;37.03;;;10.20;99.90;;;;;;5104451;27;20053;-82
2021/12/15 05:17:38;;;;;;;80.47;34.77;;;10.20;99.90;;;;;;5087879;27;20490;-82
2021/12/15 05:20:07;;;;;;;76.97;35.87;;;10.20;99.90;;;;;;5070905;27;20547;-82
2021/12/15 05:22:34;;;;;;;85.83;37.33;;;10.20;99.90;;;;;;5121950;27;20051;-82
2021/12/15 05:25:01;;;;;;;83.03;34.90;;;10.20;99.90;;;;;;5087978;27;20422;-83
2021/12/15 05:27:26;;;;;;;83.73;36.60;;;10.20;99.90;;;;;;5086674;27;20049;-82
2021/12/15 05:29:52;;;;;;;79.83;35.03;;;10.20;99.90;;;;;;5087806;27;20122;-82
2021/12/15 05:32:22;;;;;;;85.50;38.13;;;10.20;99.90;;;;;;5070872;27;20068;-81
2021/12/15 05:34:49;;;;;;;85.47;38.17;;;10.20;99.90;;;;;;5102426;27;20086;-82
2021/12/15 05:37:17;;;;;;;78.60;35.17;;;10.20;99.90;;;;;;5104066;27;20532;-81
2021/12/15 05:39:45;;;;;;;80.00;36.17;;;10.20;99.90;;;;;;5103994;27;20050;-82
2021/12/15 05:42:11;;;;;;;88.77;36.53;;;10.20;99.90;;;;;;5104758;27;20082;-82
2021/12/15 05:44:38;;;;;;;82.47;35.40;;;10.20;99.90;;;;;;5086741;27;20075;-81
2021/12/15 05:47:05;;;;;;;87.90;38.60;;;10.20;99.90;;;;;;5103973;27;20110;-81
2021/12/15 05:49:31;;;;;;;87.40;39.10;;;10.20;99.90;;;;;;5102507;27;20051;-81
2021/12/15 05:51:58;;;;;;;85.90;38.43;;;10.20;99.90;;;;;;5121374;27;20050;-81
2021/12/15 05:54:25;;;;;;;79.90;36.13;;;10.20;99.90;;;;;;5120813;27;20043;-82
2021/12/15 05:56:51;;;;;;;81.13;37.33;;;10.20;99.90;;;;;;5103952;27;20383;-81
2021/12/15 05:59:17;;;;;;;82.13;37.37;;;10.20;99.90;;;;;;5104316;27;20039;-81
2021/12/15 06:01:43;;;;;;;79.87;36.20;;;10.20;99.90;;;;;;5120561;27;20417;-83
2021/12/15 06:04:09;;;;;;;86.23;37.17;;;10.20;99.90;;;;;;5121177;27;20837;-82
2021/12/15 06:06:36;;;;;;;82.37;37.13;;;10.20;99.90;;;;;;5120233;27;20495;-82
2021/12/15 06:09:05;;;;;;;83.47;36.43;;;10.20;99.90;;;;;;5103824;27;20046;-81
2021/12/15 06:11:31;;;;;;;85.17;36.47;;;10.20;99.90;;;;;;5120208;27;20080;-80
2021/12/15 06:13:57;;;;;;;79.90;35.47;;;10.20;99.90;;;;;;5103786;27;20046;-81
2021/12/15 06:16:23;;;;;;;84.77;37.10;;;10.20;99.90;;;;;;5084524;27;20099;-81
2021/12/15 06:18:50;;;;;;;80.90;36.13;;;10.20;99.90;;;;;;5120466;27;20039;-81
2021/12/15 06:21:17;;;;;;;81.10;35.83;;;10.20;99.90;;;;;;5103236;27;20058;-83
2021/12/15 06:23:43;;;;;;;91.40;38.50;;;10.20;99.90;;;;;;5101920;27;20084;-83
2021/12/15 06:26:09;;;;;;;82.40;37.30;;;10.20;99.90;;;;;;5103330;27;20978;-88
2021/12/15 06:28:37;;;;;;;81.87;36.67;;;10.20;99.90;;;;;;5102940;27;20082;-86
2021/12/15 06:31:07;;;;;;;81.60;37.27;;;10.20;99.90;;;;;;5102517;27;20050;-84
2021/12/15 06:33:34;;;;;;;85.67;37.00;;;10.20;99.90;;;;;;5119723;27;20058;-88
2021/12/15 06:36:01;;;;;;;76.10;35.67;;;10.20;99.90;;;;;;5102201;27;20054;-82
2021/12/15 06:38:30;;;;;;;85.60;38.20;;;10.20;99.90;;;;;;5100019;28;20147;-82
2021/12/15 06:40:57;;;;;;;86.37;37.87;;;10.20;99.90;;;;;;5112361;27;20090;-82
2021/12/15 06:43:24;;;;;;;83.63;38.63;;;10.20;99.90;;;;;;5119847;27;20447;-82
2021/12/15 06:46:09;;;;;;;84.53;37.00;;;10.20;99.90;;;;;;5101686;27;20036;-82
2021/12/15 06:59:15;;;;;;;79.53;37.33;;;10.20;99.90;;;;;;5117532;27;20313;-79
2021/12/15 07:01:41;;;;;;;82.83;34.93;;;10.20;99.90;;;;;;5099474;27;20070;-79
2021/12/15 07:04:06;;;;;;;84.47;36.07;;;10.20;99.90;;;;;;5068774;27;20083;-79
2021/12/15 07:06:32;;;;;;;82.33;37.93;;;10.20;99.90;;;;;;5098849;27;20585;-79
2021/12/15 07:08:58;;;;;;;80.57;37.97;;;10.20;99.90;;;;;;5102151;27;20043;-79
2021/12/15 07:11:24;;;;;;;84.03;38.97;;;10.20;99.90;;;;;;5085188;27;20047;-81
2021/12/15 07:13:50;;;;;;;77.87;35.53;;;10.20;99.90;;;;;;5083304;27;20043;-79
2021/12/15 07:16:18;;;;;;;82.03;37.67;;;10.20;99.90;;;;;;5082065;28;20044;-83
2021/12/15 07:19:06;;;;;;;80.73;37.63;;;10.20;99.90;;;;;;5093950;28;20102;-83
2021/12/15 07:21:38;;;;;;;77.70;37.37;;;10.20;99.90;;;;;;5092248;28;20042;-86
2021/12/15 07:24:06;;;;;;;74.97;34.77;;;10.10;99.90;;;;;;5065134;28;20058;-85
2021/12/15 07:26:32;;;;;;;83.63;35.33;;;10.10;99.90;;;;;;5096287;28;20479;-86
2021/12/15 07:28:58;;;;;;;74.87;33.37;;;10.20;99.90;;;;;;5069588;28;20069;-85
2021/12/15 07:31:24;;;;;;;77.10;35.73;;;10.20;99.90;;;;;;5101550;27;20107;-86
2021/12/15 07:33:50;;;;;;;76.33;35.40;;;10.20;99.90;;;;;;5102844;27;20057;-85
2021/12/15 07:36:16;;;;;;;75.97;35.13;;;10.20;99.90;;;;;;5118136;27;20039;-85
2021/12/15 07:38:42;;;;;;;76.23;34.60;;;10.20;99.90;;;;;;5098868;28;20047;-85
2021/12/15 07:41:29;;;;;;;71.17;34.77;;;10.20;99.90;;;;;;5098013;28;20056;-86
2021/12/15 07:43:58;;;;;;;69.50;32.43;;;10.20;99.90;;;;;;5101489;27;20082;-86
2021/12/15 07:46:25;;;;;;;74.23;34.73;;;10.20;99.90;;;;;;5082278;28;20043;-85
2021/12/15 07:48:51;;;;;;;72.13;31.00;;;10.20;99.90;;;;;;5092503;28;20051;-86
2021/12/15 07:51:17;;;;;;;76.90;33.77;;;10.20;99.90;;;;;;5081789;28;20138;-85
2021/12/15 07:53:43;;;;;;;72.30;32.70;;;10.20;99.90;;;;;;5097785;28;20067;-86
2021/12/15 07:56:10;;;;;;;73.50;32.97;;;10.20;99.90;;;;;;5068518;28;20050;-86
2021/12/15 07:58:36;;;;;;;71.10;31.80;;;10.20;99.90;;;;;;5075377;28;20456;-85
2021/12/15 08:01:04;;;;;;;68.37;31.80;;;10.20;99.90;;;;;;5083854;28;20103;-86
2021/12/15 08:03:30;;;;;;;66.20;31.93;;;10.20;99.90;;;;;;5100682;28;20432;-86
2021/12/15 08:05:57;;;;;;;67.03;30.30;;;10.20;99.90;;;;;;5098304;28;20048;-85
2021/12/15 08:08:23;;;;;;;72.00;31.37;;;10.20;99.90;;;;;;5082825;28;20043;-86
2021/12/15 08:10:50;;;;;;;68.30;31.40;;;10.20;99.90;;;;;;5068251;28;20513;-85
2021/12/15 08:13:16;;;;;;;64.73;29.73;;;10.20;99.90;;;;;;5066881;28;20035;-86
2021/12/15 08:15:43;;;;;;;61.47;28.90;;;10.20;99.90;;;;;;5068574;28;20040;-85
2021/12/15 08:18:09;;;;;;;68.83;31.63;;;10.20;99.90;;;;;;5100545;28;20561;-86
2021/12/15 08:20:35;;;;;;;64.60;30.13;;;10.20;99.90;;;;;;5085333;28;20050;-86
2021/12/15 08:23:03;;;;;;;64.33;29.57;;;10.30;99.90;;;;;;5103639;27;20104;-85
2021/12/15 08:25:31;;;;;;;60.13;27.87;;;10.20;99.90;;;;;;5105895;27;20074;-85
2021/12/15 08:27:57;;;;;;;63.33;28.43;;;10.30;99.90;;;;;;5105130;27;20050;-85
2021/12/15 08:30:26;;;;;;;58.80;29.37;;;10.30;99.90;;;;;;5085985;28;20054;-85
2021/12/15 08:32:56;;;;;;;60.43;28.67;;;10.30;99.90;;;;;;5103205;27;20043;-85
2021/12/15 08:35:27;;;;;;;56.13;29.20;;;10.30;99.90;;;;;;5102259;28;20549;-85
2021/12/15 08:37:54;;;;;;;60.45;28.98;;;10.30;99.90;;;;;;5102614;28;20127;-84
2021/12/15 08:40:21;;;;;;;61.83;29.70;;;10.30;99.90;;;;;;5084350;28;20052;-85
2021/12/15 08:42:47;;;;;;;59.27;28.57;;;10.30;99.90;;;;;;5105262;27;20405;-85
2021/12/15 08:45:14;;;;;;;57.73;28.37;;;10.30;99.90;;;;;;5104724;27;20460;-84
2021/12/15 08:47:40;;;;;;;59.63;28.37;;;10.30;99.90;;;;;;5122638;27;20042;-85
2021/12/15 08:50:09;;;;;;;65.30;29.73;;;10.30;99.90;;;;;;5061195;28;20043;-84
2021/12/15 08:52:35;;;;;;;59.40;27.87;;;10.30;99.90;;;;;;5101526;28;20058;-84
2021/12/15 08:55:04;;;;;;;60.13;28.23;;;10.30;99.90;;;;;;5084966;28;20058;-84
2021/12/15 08:57:30;;;;;;;57.53;26.70;;;10.30;99.90;;;;;;5104140;27;20074;-85
2021/12/15 08:59:55;;;;;;;57.57;28.17;;;10.40;99.90;;;;;;5088203;27;20047;-84
2021/12/15 09:02:21;;;;;;;67.97;27.80;;;10.30;99.90;;;;;;5071031;27;20084;-84
2021/12/15 09:04:47;;;;;;;59.13;27.80;;;10.40;99.90;;;;;;5087967;27;20036;-85
2021/12/15 09:07:14;;;;;;;60.00;27.43;;;10.40;99.90;;;;;;5071222;27;20050;-85
2021/12/15 09:09:40;;;;;;;58.27;27.67;;;10.40;99.90;;;;;;5102045;27;20043;-84
2021/12/15 09:12:07;;;;;;;57.83;27.63;;;10.40;99.90;;;;;;5084488;28;20073;-84
2021/12/15 09:14:33;;;;;;;54.00;27.27;;;10.40;99.90;;;;;;5103799;27;20101;-84
2021/12/15 09:17:00;;;;;;;56.77;26.80;;;10.40;99.90;;;;;;5104461;27;20167;-85
2021/12/15 09:19:26;;;;;;;57.90;26.67;;;10.40;99.90;;;;;;5100987;28;20048;-86
2021/12/15 09:21:52;;;;;;;52.80;26.70;;;10.40;99.90;;;;;;5068403;27;20363;-84
2021/12/15 09:24:20;;;;;;;52.43;27.27;;;10.40;99.90;;;;;;5084882;27;20079;-85
2021/12/15 09:26:46;;;;;;;53.90;26.27;;;10.40;99.90;;;;;;5101653;28;20084;-84
2021/12/15 09:29:12;;;;;;;53.97;26.83;;;10.50;99.90;;;;;;5101486;28;20461;-83
2021/12/15 09:31:39;;;;;;;54.40;25.40;;;10.50;99.90;;;;;;5086436;27;20047;-84
2021/12/15 09:34:06;;;;;;;47.90;24.17;;;10.50;99.90;;;;;;5103554;27;20536;-85
2021/12/15 09:36:33;;;;;;;52.27;25.47;;;10.40;99.90;;;;;;5120444;27;20043;-85
2021/12/15 09:39:08;;;;;;;56.37;27.20;;;10.40;99.90;;;;;;5101081;28;20051;-85
2021/12/15 09:41:34;;;;;;;54.17;25.80;;;10.50;99.90;;;;;;5117837;27;20065;-85
2021/12/15 09:44:07;;;;;;;49.77;24.33;;;10.40;99.90;;;;;;5071042;27;20062;-85
2021/12/15 09:46:36;;;;;;;53.83;26.33;;;10.50;99.90;;;;;;5086081;27;20506;-85
2021/12/15 09:57:26;;;;;;;43.70;23.93;;;10.60;99.90;;;;;;5102389;28;20044;-84
2021/12/15 10:03:06;;;;;;;45.17;24.07;;;10.60;99.90;;;;;;5106162;27;20039;-84
2021/12/15 10:05:53;;;;;;;49.90;24.07;;;10.70;99.90;;;;;;5103565;27;20051;-84
2021/12/15 10:19:23;;;;;;;44.70;21.60;;;10.80;99.90;;;;;;5119555;27;20107;-85
2021/12/15 10:22:08;;;;;;;41.50;22.37;;;10.80;99.90;;;;;;5100253;28;20039;-84
2021/12/15 10:24:43;;;;;;;45.00;21.20;;;10.80;99.90;;;;;;5096864;27;20136;-85
2021/12/15 10:27:09;;;;;;;40.70;20.63;;;10.80;99.90;;;;;;5102364;27;20055;-84
2021/12/15 10:29:35;;;;;;;38.83;20.67;;;10.80;99.90;;;;;;5086738;27;20100;-84
2021/12/15 10:32:04;;;;;;;39.23;19.70;;;10.80;99.90;;;;;;5066936;27;20046;-84
2021/12/15 10:34:30;;;;;;;44.90;21.53;;;10.80;99.90;;;;;;5099646;28;20127;-84
2021/12/15 10:36:57;;;;;;;38.43;20.67;;;10.80;99.90;;;;;;5089984;28;20071;-84
2021/12/15 10:39:24;;;;;;;41.87;21.30;;;10.90;99.90;;;;;;5099651;28;20394;-84
2021/12/15 10:41:53;;;;;;;41.50;20.63;;;10.90;99.90;;;;;;5086531;27;20079;-84
2021/12/15 10:44:26;;;;;;;45.57;20.33;;;10.80;99.90;;;;;;5120552;27;20039;-84
2021/12/15 10:46:59;;;;;;;37.50;20.00;;;10.90;99.90;;;;;;5089610;27;20036;-84
2021/12/15 10:49:36;;;;;;;37.63;19.53;;;10.90;99.90;;;;;;5100159;28;20074;-85
2021/12/15 10:52:06;;;;;;;37.40;18.77;;;10.90;99.90;;;;;;5099407;28;20039;-84
2021/12/15 10:54:39;;;;;;;40.13;19.47;;;10.90;99.90;;;;;;5097811;28;20071;-84
2021/12/15 10:57:29;;;;;;;41.67;19.33;;;10.90;99.90;;;;;;5116702;28;20036;-86
2021/12/15 10:59:55;;;;;;;37.73;19.23;;;10.90;99.90;;;;;;5102647;27;20078;-84
2021/12/15 11:02:28;;;;;;;39.03;19.93;;;10.90;99.90;;;;;;5085017;27;20576;-85
2021/12/15 11:05:14;;;;;;;37.60;19.27;;;11.00;99.90;;;;;;5101578;27;20043;-85
2021/12/15 11:07:48;;;;;;;40.57;18.87;;;11.00;99.90;;;;;;5101333;27;20048;-84
2021/12/15 11:10:26;;;;;;;35.80;19.30;;;11.00;99.90;;;;;;5101985;27;20614;-84
2021/12/15 11:12:57;;;;;;;32.67;17.90;;;11.00;99.90;;;;;;5119001;27;20118;-84
2021/12/15 11:15:27;;;;;;;32.93;17.20;;;11.00;99.90;;;;;;5102054;27;20050;-85
2021/12/15 11:18:03;;;;;;;29.97;17.23;;;11.10;99.90;;;;;;5101253;27;20071;-84
2021/12/15 11:20:31;;;;;;;33.93;16.47;;;11.10;99.90;;;;;;5098612;28;20043;-84
2021/12/15 11:23:03;;;;;;;35.30;16.93;;;11.10;99.90;;;;;;5098043;28;20046;-84
2021/12/15 11:25:31;;;;;;;;;;;11.10;99.90;;;;;;5096737;28;20048;-82
2021/12/15 11:27:59;;;;;;;30.33;15.50;;;11.00;99.90;;;;;;5101338;27;19962;-82
2021/12/15 11:30:46;;;;;;;31.47;16.33;;;11.00;99.90;;;;;;5102956;27;20061;-83
2021/12/15 11:33:16;;;;;;;32.80;16.53;;;11.00;99.90;;;;;;5102076;27;20070;-79
2021/12/15 11:36:04;;;;;;;32.50;16.17;;;11.00;99.90;;;;;;5100207;27;20056;-78
2021/12/15 11:38:36;;;;;;;26.53;15.03;;;11.00;99.90;;;;;;5105139;27;20401;-79
2021/12/15 11:41:10;;;;;;;24.88;13.73;;;11.10;99.90;;;;;;5099417;28;20261;-79
2021/12/15 11:43:40;;;;;;;28.30;15.00;;;11.10;99.90;;;;;;5108673;28;20047;-79
2021/12/15 11:46:35;;;;;;;26.97;14.57;;;11.10;99.90;;;;;;5118996;27;20533;-79
2021/12/15 11:49:14;;;;;;;30.10;15.77;;;11.10;99.90;;;;;;5118134;28;20052;-79
2021/12/15 11:51:49;;;;;;;34.13;16.20;;;11.10;99.90;;;;;;5114937;28;20047;-79
2021/12/15 11:54:28;;;;;;;33.73;15.73;;;11.10;99.90;;;;;;5114825;28;20538;-79
2021/12/15 11:57:02;;;;;;;24.00;14.30;;;11.10;99.90;;;;;;5101241;28;20047;-79
2021/12/15 11:59:29;;;;;;;28.83;14.97;;;11.10;99.90;;;;;;5118060;28;20050;-79
2021/12/15 12:02:20;;;;;;;29.77;15.30;;;11.10;99.90;;;;;;5117653;28;20130;-79
2021/12/15 12:04:54;;;;;;;30.73;13.17;;;11.10;99.90;;;;;;5101846;28;20065;-78
2021/12/15 12:07:41;;;;;;;21.57;10.67;;;11.10;99.90;;;;;;5097958;28;20099;-79
2021/12/15 12:10:31;;;;;;;22.40;11.13;;;11.10;99.90;;;;;;5118507;28;20079;-79
2021/12/15 12:13:12;;;;;;;20.23;11.53;;;11.10;99.90;;;;;;5104961;28;20057;-79
2021/12/15 12:15:44;;;;;;;24.13;12.23;;;11.20;99.90;;;;;;5118970;28;20051;-78
2021/12/15 12:18:19;;;;;;;24.30;12.60;;;11.20;99.90;;;;;;5119066;28;20047;-78
2021/12/15 12:20:48;;;;;;;26.50;13.13;;;11.10;99.90;;;;;;5100209;28;20095;-79
2021/12/15 12:23:21;;;;;;;27.50;14.20;;;11.10;99.90;;;;;;5114423;28;20051;-78
2021/12/15 12:25:53;;;;;;;26.13;14.60;;;11.10;99.90;;;;;;5102764;28;20046;-79
2021/12/15 12:28:28;;;;;;;25.60;14.37;;;11.00;99.90;;;;;;5101122;28;20077;-79
2021/12/15 12:31:00;;;;;;;28.77;15.30;;;11.00;99.90;;;;;;5117508;28;20039;-79
2021/12/15 12:33:28;;;;;;;29.27;15.70;;;11.00;99.90;;;;;;5115668;28;20039;-79
2021/12/15 12:36:13;;;;;;;30.80;14.90;;;11.00;99.90;;;;;;5117474;28;20051;-79
2021/12/15 12:38:47;;;;;;;28.10;14.57;;;11.00;99.90;;;;;;5102413;28;20027;-78
2021/12/15 12:41:20;;;;;;;29.27;15.70;;;11.00;99.90;;;;;;5096464;28;20084;-79
2021/12/15 12:43:48;;;;;;;24.80;14.00;;;11.00;99.90;;;;;;5102533;28;20055;-79
2021/12/15 12:47:08;;;;;;;24.50;12.83;;;11.00;99.90;;;;;;5089807;28;20103;-79
2021/12/15 13:00:30;;;;;;;24.03;11.87;;;11.20;99.90;;;;;;5107152;28;20044;-78
2021/12/15 13:03:20;;;;;;;23.03;11.53;;;11.10;99.90;;;;;;5118041;28;20069;-79
2021/12/15 13:06:01;;;;;;;21.97;11.70;;;11.10;99.90;;;;;;5107195;28;20062;-79
2021/12/15 13:08:29;;;;;;;22.47;11.70;;;11.10;99.90;;;;;;5117491;28;20069;-78
2021/12/15 13:11:18;;;;;;;21.80;11.97;;;11.10;99.90;;;;;;5116755;28;20072;-78
2021/12/15 13:14:01;;;;;;;21.53;11.57;;;11.10;99.90;;;;;;5097626;28;20525;-78
2021/12/15 13:16:39;;;;;;;25.00;11.73;;;11.10;99.90;;;;;;5107921;28;20449;-79
2021/12/15 13:19:18;;;;;;;20.87;10.77;;;11.00;99.90;;;;;;5091583;28;20095;-81
2021/12/15 13:28:42;;;;;;;;;;;10.90;99.90;;;;;;5120946;27;20043;-81
2021/12/15 13:30:49;;;;;;;10.80;5.50;;;10.90;99.90;;;;;;5098228;28;20055;-82
2021/12/15 13:33:38;;;;;;;8.57;4.93;;;10.80;99.90;;;;;;5095441;28;20051;-81
2021/12/15 13:36:05;;;;;;;10.37;5.07;;;10.80;99.90;;;;;;5109091;28;20123;-82
2021/12/15 13:38:52;;;;;;;11.70;4.93;;;10.80;99.90;;;;;;5115320;28;20118;-81
2021/12/15 13:44:00;;;;;;;10.13;4.80;;;10.70;99.90;;;;;;5108906;28;20043;-81
2021/12/15 13:46:37;;;;;;;15.17;5.20;;;10.70;99.90;;;;;;5118095;28;20074;-81
2021/12/15 13:49:38;;;;;;;9.07;4.73;;;10.70;99.90;;;;;;5112554;28;20032;-79
2021/12/15 13:52:16;;;;;;;7.00;4.43;;;10.60;99.90;;;;;;5092852;28;20087;-81
2021/12/15 13:54:42;;;;;;;8.63;4.43;;;10.60;99.90;;;;;;5109985;28;20293;-80
2021/12/15 13:57:14;;;;;;;13.40;5.33;;;10.60;99.90;;;;;;5107496;28;20051;-82
2021/12/15 14:00:01;;;;;;;10.98;5.35;;;10.60;99.90;;;;;;5111265;28;20044;-80
2021/12/15 14:02:31;;;;;;;12.60;5.70;;;10.50;99.90;;;;;;5094846;28;20478;-81
2021/12/15 14:05:26;;;;;;;12.10;5.20;;;10.50;99.90;;;;;;5103421;28;20043;-81
2021/12/15 14:08:05;;;;;;;15.50;5.80;;;10.50;99.90;;;;;;5099322;28;20565;-80